Time;durP1;ratioP1;P1;durP2;ratioP2;P2;SDS_P1;SDS_P2;PMS_P1;PMS_P2;Temp;Humidity;BMP_temperature;BMP_pressure;BME280_temperature;BME280_humidity;BME280_pressure;Samples;Min_cycle;Max_cycle;Signal;HPM_P1;HPM_P2
2021/11/10 00:01:20;;;;;;;1.80;1.30;;;;;;;7.23;28.66;100710.41;5091800;28;20052;-65
2021/11/10 00:03:46;;;;;;;1.60;1.50;;;;;;;7.22;28.79;100708.72;5074336;28;20047;-70
2021/11/10 00:06:11;;;;;;;8.93;1.67;;;;;;;7.18;29.02;100717.84;5092314;28;20051;-66
2021/11/10 00:08:37;;;;;;;1.80;1.70;;;;;;;7.33;28.89;100724.66;5091518;28;20067;-66
2021/11/10 00:11:03;;;;;;;1.50;1.40;;;;;;;7.27;28.66;100719.81;5091943;28;20044;-65
2021/11/10 00:13:28;;;;;;;2.60;1.50;;;;;;;7.38;28.45;100725.19;5073747;28;20050;-65
2021/11/10 00:15:54;;;;;;;3.90;1.47;;;;;;;7.51;28.49;100740.03;5073778;28;20051;-66
2021/11/10 00:18:20;;;;;;;1.50;1.40;;;;;;;7.68;28.35;100739.63;5073604;28;20046;-66
2021/11/10 00:20:47;;;;;;;3.30;1.70;;;;;;;7.78;28.28;100731.88;5057249;28;20466;-65
2021/11/10 00:23:14;;;;;;;1.97;1.27;;;;;;;7.94;28.09;100753.56;5057335;28;20050;-65
2021/11/10 00:25:40;;;;;;;1.47;1.37;;;;;;;7.57;28.13;100731.66;5091364;28;20047;-64
2021/11/10 00:28:06;;;;;;;16.37;1.70;;;;;;;7.76;27.86;100749.66;5091323;28;20441;-65
2021/11/10 00:30:32;;;;;;;1.77;1.40;;;;;;;8.09;27.92;100758.56;5091314;28;20055;-64
2021/11/10 00:32:58;;;;;;;1.80;1.30;;;;;;;7.83;27.79;100727.91;5091467;28;20040;-65
2021/11/10 00:35:24;;;;;;;2.03;1.40;;;;;;;8.10;27.66;100764.69;5073156;28;20058;-65
2021/11/10 00:37:49;;;;;;;1.47;1.37;;;;;;;8.24;27.53;100770.66;5056652;28;20062;-67
2021/11/10 00:40:17;;;;;;;3.83;1.67;;;;;;;8.31;27.28;100765.75;5091589;28;20097;-64
2021/11/10 00:42:43;;;;;;;6.87;1.70;;;;;;;8.48;27.21;100771.47;5073334;28;20036;-64
2021/11/10 00:45:09;;;;;;;1.77;1.67;;;;;;;8.71;27.28;100774.97;5073085;28;20151;-64
2021/11/10 00:47:35;;;;;;;1.93;1.50;;;;;;;8.61;27.20;100776.63;5073107;28;20072;-64
2021/11/10 00:50:01;;;;;;;1.87;1.50;;;;;;;8.77;27.16;100774.50;5073036;28;20056;-65
2021/11/10 00:52:28;;;;;;;1.40;1.30;;;;;;;8.72;26.81;100784.59;5073493;28;20043;-65
2021/11/10 00:54:55;;;;;;;1.73;1.60;;;;;;;8.74;26.61;100784.47;5073186;28;20040;-66
2021/11/10 00:57:21;;;;;;;1.60;1.50;;;;;;;8.61;26.68;100779.28;5055026;28;20415;-65
2021/11/10 00:59:47;;;;;;;1.67;1.50;;;;;;;8.84;26.56;100783.66;5054166;28;20165;-66
2021/11/10 01:02:13;;;;;;;3.37;1.70;;;;;;;8.77;26.64;100752.47;5053722;28;20500;-70
2021/11/10 01:04:39;;;;;;;2.00;1.80;;;;;;;8.96;26.69;100787.16;5069671;28;20067;-65
2021/11/10 01:07:05;;;;;;;1.90;1.80;;;;;;;9.04;26.69;100798.00;5088465;28;20121;-67
2021/11/10 01:09:39;;;;;;;2.97;1.90;;;;;;;8.75;26.63;100763.16;5070010;28;20060;-68
2021/11/10 01:12:07;;;;;;;2.47;1.90;;;;;;;9.30;26.50;100802.09;5070269;28;20108;-65
2021/11/10 01:14:33;;;;;;;3.00;1.80;;;;;;;9.17;26.30;100798.72;5055627;28;20128;-66
2021/11/10 01:16:59;;;;;;;2.93;1.77;;;;;;;9.13;26.28;100791.97;5055877;28;20091;-65
2021/11/10 01:19:25;;;;;;;6.43;1.90;;;;;;;9.00;26.30;100788.59;5072236;28;20081;-64
2021/11/10 01:21:51;;;;;;;2.03;1.70;;;;;;;9.12;26.46;100804.38;5055888;28;20051;-66
2021/11/10 01:24:18;;;;;;;1.90;1.80;;;;;;;8.96;26.46;100806.56;5072490;28;20499;-65
2021/11/10 01:26:44;;;;;;;2.33;1.90;;;;;;;8.98;26.47;100809.91;5072227;28;20055;-65
2021/11/10 01:29:10;;;;;;;3.40;1.77;;;;;;;9.06;26.51;100815.47;5072277;28;20096;-65
2021/11/10 01:31:36;;;;;;;2.43;1.50;;;;;;;9.04;26.27;100817.38;5055418;28;20044;-64
2021/11/10 01:34:07;;;;;;;2.00;1.80;;;;;;;8.99;26.24;100816.94;5055625;28;20490;-64
2021/11/10 01:36:37;;;;;;;1.63;1.33;;;;;;;9.45;26.01;100816.78;5055618;28;20048;-65
2021/11/10 01:39:05;;;;;;;2.67;1.40;;;;;;;9.08;25.97;100779.09;5072098;28;20051;-65
2021/11/10 01:42:01;;;;;;;1.70;1.60;;;;;;;9.38;26.18;100811.13;5055240;28;20044;-64
2021/11/10 01:44:29;;;;;;;1.90;1.50;;;;;;;8.73;26.45;100781.00;5072140;28;20046;-65
2021/11/10 01:46:57;;;;;;;1.70;1.50;;;;;;;8.93;26.57;100805.94;5055469;28;20048;-65
2021/11/10 01:49:25;;;;;;;1.60;1.50;;;;;;;8.60;26.87;100806.75;5039006;28;20036;-65
2021/11/10 01:51:53;;;;;;;1.60;1.50;;;;;;;8.64;27.10;100808.22;5055485;28;20032;-66
2021/11/10 01:54:23;;;;;;;2.30;1.57;;;;;;;8.59;27.03;100821.78;5055816;28;20044;-66
2021/11/10 01:56:50;;;;;;;1.70;1.60;;;;;;;8.54;27.02;100823.94;5072046;28;20504;-65
2021/11/10 02:00:00;;;;;;;1.40;1.30;;;;;;;8.88;26.80;100829.28;5071867;28;20097;-65
2021/11/10 02:02:35;;;;;;;3.73;1.63;;;;;;;8.07;27.27;100809.91;5073974;28;20052;-65
2021/11/10 02:05:08;;;;;;;1.63;1.53;;;;;;;8.35;27.42;100830.72;5071856;28;20051;-65
2021/11/10 02:07:36;;;;;;;1.77;1.50;;;;;;;8.31;27.33;100848.66;5071733;28;20561;-64
2021/11/10 02:10:03;;;;;;;2.00;1.50;;;;;;;8.50;27.33;100854.25;5038452;28;20051;-65
2021/11/10 02:12:30;;;;;;;2.53;1.70;;;;;;;8.32;27.54;100845.03;5055064;28;20056;-65
2021/11/10 02:14:58;;;;;;;2.67;1.57;;;;;;;8.39;27.60;100850.72;5039182;28;20048;-65
2021/11/10 02:17:25;;;;;;;4.97;1.87;;;;;;;8.16;27.58;100846.28;5073312;28;20036;-66
2021/11/10 02:19:54;;;;;;;1.70;1.60;;;;;;;8.08;27.72;100849.47;5076017;28;20047;-65
2021/11/10 02:22:31;;;;;;;3.23;1.70;;;;;;;8.04;27.69;100850.66;5075880;28;20046;-64
2021/11/10 02:24:57;;;;;;;1.40;1.30;;;;;;;8.13;27.42;100857.91;5075820;28;20127;-65
2021/11/10 02:27:27;;;;;;;2.10;1.77;;;;;;;8.09;27.61;100839.72;5059275;28;20122;-65
2021/11/10 02:29:53;;;;;;;1.73;1.60;;;;;;;8.25;27.50;100866.78;5076078;28;20050;-66
2021/11/10 02:32:19;;;;;;;4.00;2.10;;;;;;;8.41;27.51;100846.19;5075423;28;20044;-66
2021/11/10 02:34:47;;;;;;;2.43;2.17;;;;;;;8.76;27.79;100877.91;5075419;28;20069;-66
2021/11/10 02:37:15;;;;;;;1.80;1.63;;;;;;;8.82;27.40;100873.00;5058903;28;20085;-65
2021/11/10 02:39:41;;;;;;;2.87;2.27;;;;;;;8.53;27.54;100871.72;5075213;28;20555;-64
2021/11/10 02:42:07;;;;;;;4.47;1.90;;;;;;;8.47;27.48;100858.94;5093647;28;20109;-66
2021/11/10 02:44:34;;;;;;;1.90;1.70;;;;;;;8.53;27.43;100875.19;5058474;28;20384;-65
2021/11/10 02:47:00;;;;;;;2.07;1.80;;;;;;;8.35;27.76;100866.00;5093368;28;20106;-65
2021/11/10 02:49:27;;;;;;;3.23;1.80;;;;;;;8.46;27.40;100862.53;5074997;28;20517;-67
2021/11/10 02:52:04;;;;;;;1.67;1.57;;;;;;;8.91;27.45;100874.09;5093618;28;20043;-66
2021/11/10 02:54:32;;;;;;;1.73;1.63;;;;;;;8.73;27.63;100873.72;5093043;28;20074;-66
2021/11/10 02:57:00;;;;;;;3.73;1.93;;;;;;;8.59;27.30;100880.03;5041732;28;20051;-66
2021/11/10 02:59:26;;;;;;;2.37;1.97;;;;;;;8.40;27.46;100890.31;5074971;28;20076;-71
2021/11/10 03:01:54;;;;;;;3.60;1.80;;;;;;;8.76;27.52;100889.38;5058566;28;20123;-65
2021/11/10 03:04:26;;;;;;;2.07;1.70;;;;;;;8.88;27.33;100880.50;5057891;28;20044;-65
2021/11/10 03:06:54;;;;;;;1.87;1.77;;;;;;;8.69;27.45;100888.13;5058594;28;20090;-67
2021/11/10 03:09:22;;;;;;;1.63;1.53;;;;;;;8.93;27.48;100888.94;5092264;28;20055;-66
2021/11/10 03:11:57;;;;;;;3.05;1.63;;;;;;;9.04;27.17;100864.25;5074425;28;20459;-66
2021/11/10 03:14:28;;;;;;;2.50;1.60;;;;;;;9.03;27.16;100859.91;5074834;28;20040;-65
2021/11/10 03:16:55;;;;;;;6.88;1.80;;;;;;;8.93;27.18;100890.72;5058759;28;20051;-66
2021/11/10 03:19:24;;;;;;;3.43;1.83;;;;;;;8.77;27.32;100882.25;5075459;28;20499;-65
2021/11/10 03:21:50;;;;;;;2.13;1.60;;;;;;;8.92;27.30;100889.88;5058015;28;20047;-65
2021/11/10 03:24:17;;;;;;;1.90;1.70;;;;;;;8.87;27.03;100892.06;5074635;28;20093;-65
2021/11/10 03:26:45;;;;;;;5.93;2.10;;;;;;;8.90;27.21;100899.78;5074752;28;20624;-65
2021/11/10 03:29:11;;;;;;;5.43;1.90;;;;;;;8.89;27.05;100903.38;5057433;28;20499;-65
2021/11/10 03:31:40;;;;;;;2.90;1.70;;;;;;;8.90;27.37;100898.91;5057315;28;20044;-65
2021/11/10 03:34:08;;;;;;;1.80;1.50;;;;;;;9.08;27.07;100877.16;5074401;28;20096;-67
2021/11/10 03:36:34;;;;;;;2.00;1.83;;;;;;;9.29;27.13;100907.28;5074130;28;20040;-65
2021/11/10 03:39:01;;;;;;;2.33;1.60;;;;;;;8.83;27.29;100874.69;5057473;28;20060;-66
2021/11/10 03:41:28;;;;;;;3.20;1.67;;;;;;;8.90;27.11;100881.22;5040792;28;20368;-73
2021/11/10 03:43:54;;;;;;;2.20;2.00;;;;;;;9.04;27.00;100907.47;5092414;28;20092;-68
2021/11/10 03:46:23;;;;;;;4.47;1.70;;;;;;;9.33;27.12;100914.03;5073828;28;20059;-65
2021/11/10 03:48:50;;;;;;;2.13;1.80;;;;;;;9.15;26.82;100881.00;5073782;28;20051;-65
2021/11/10 03:51:17;;;;;;;2.93;1.53;;;;;;;9.14;26.96;100891.72;5057240;28;20540;-65
2021/11/10 03:53:45;;;;;;;9.27;1.70;;;;;;;9.39;27.06;100910.94;5057344;28;20044;-65
2021/11/10 03:56:12;;;;;;;1.43;1.33;;;;;;;9.22;26.92;100903.44;5073629;28;20500;-64
2021/11/10 03:58:38;;;;;;;1.67;1.50;;;;;;;9.31;26.64;100907.16;5057121;28;20043;-65
2021/11/10 04:01:06;;;;;;;4.00;1.83;;;;;;;9.42;26.79;100876.22;5073834;28;20097;-67
2021/11/10 04:03:33;;;;;;;1.57;1.47;;;;;;;9.57;26.64;100896.22;5056995;28;20495;-65
2021/11/10 04:06:00;;;;;;;2.00;1.70;;;;;;;9.50;26.75;100897.66;5091699;28;20036;-71
2021/11/10 04:08:27;;;;;;;3.43;1.80;;;;;;;9.49;26.84;100898.63;5073575;28;20419;-65
2021/11/10 04:10:55;;;;;;;2.20;1.70;;;;;;;9.36;26.67;100897.91;5073854;28;20059;-66
2021/11/10 04:13:24;;;;;;;2.37;1.53;;;;;;;9.34;26.51;100904.28;5033631;28;20494;-67
2021/11/10 04:15:50;;;;;;;1.77;1.50;;;;;;;9.34;26.78;100907.78;5039033;28;20076;-66
2021/11/10 04:18:17;;;;;;;2.90;1.80;;;;;;;9.47;26.84;100918.28;5072130;28;20139;-73
2021/11/10 04:20:45;;;;;;;4.07;1.53;;;;;;;9.31;26.61;100891.25;5055404;28;20044;-73
2021/11/10 04:23:12;;;;;;;2.03;1.73;;;;;;;9.44;26.73;100927.31;5055920;28;20070;-71
2021/11/10 04:25:38;;;;;;;5.53;1.70;;;;;;;9.57;26.57;100936.00;5072451;28;20451;-70
2021/11/10 04:28:05;;;;;;;4.00;2.20;;;;;;;9.81;26.58;100923.44;5090198;28;20135;-66
2021/11/10 04:30:33;;;;;;;1.67;1.50;;;;;;;9.68;26.50;100930.72;5056378;28;20102;-70
2021/11/10 04:33:01;;;;;;;4.03;1.40;;;;;;;9.48;26.55;100898.75;5074098;28;20047;-71
2021/11/10 04:35:27;;;;;;;3.77;1.60;;;;;;;9.57;26.67;100925.41;5071728;28;20043;-68
2021/11/10 04:37:54;;;;;;;2.00;1.80;;;;;;;9.46;26.51;100895.38;5038787;28;20094;-68
2021/11/10 04:40:20;;;;;;;4.67;1.60;;;;;;;9.72;26.56;100926.84;5070565;28;20095;-69
2021/11/10 04:42:47;;;;;;;3.53;1.50;;;;;;;9.62;26.60;100925.03;5071700;28;20084;-70
2021/11/10 04:45:26;;;;;;;2.37;1.57;;;;;;;9.53;26.74;100931.06;5071240;28;20119;-70
2021/11/10 04:47:52;;;;;;;4.03;1.53;;;;;;;9.57;26.86;100933.34;5056371;28;20728;-70
2021/11/10 04:50:18;;;;;;;4.10;1.70;;;;;;;9.40;26.99;100938.28;5072131;28;20059;-71
2021/11/10 04:52:44;;;;;;;3.53;1.80;;;;;;;9.37;27.20;100920.81;5090357;28;20047;-68
2021/11/10 04:55:10;;;;;;;11.43;4.60;;;;;;;9.63;27.04;100935.53;5055460;28;20507;-68
2021/11/10 04:57:36;;;;;;;2.67;1.80;;;;;;;9.16;26.85;100901.28;5038963;28;20047;-69
2021/11/10 05:00:04;;;;;;;5.40;1.77;;;;;;;9.51;26.99;100895.84;5069918;28;20048;-69
2021/11/10 05:02:37;;;;;;;3.67;2.00;;;;;;;9.34;26.96;100907.78;5069699;28;20058;-69
2021/11/10 05:05:03;;;;;;;3.63;2.10;;;;;;;9.57;27.11;100921.88;5069757;28;20036;-69
2021/11/10 05:07:31;;;;;;;6.10;1.90;;;;;;;9.47;27.10;100927.06;5053462;28;20047;-69
2021/11/10 05:09:57;;;;;;;3.83;2.00;;;;;;;9.32;27.15;100930.91;5053369;28;20560;-69
2021/11/10 05:12:23;;;;;;;5.83;1.60;;;;;;;9.18;27.17;100931.13;5052378;28;20128;-69
2021/11/10 05:14:56;;;;;;;7.50;1.80;;;;;;;9.38;27.20;100937.56;5069359;28;20044;-69
2021/11/10 05:17:23;;;;;;;;;;;;;;;10.03;26.46;100931.41;5072030;28;20040;-69
2021/11/10 05:19:50;;;;;;;7.13;2.03;;;;;;;9.36;27.14;100940.34;5055513;28;19920;-69
2021/11/10 05:22:17;;;;;;;3.63;1.50;;;;;;;9.40;27.22;100940.91;5039146;28;20036;-69
2021/11/10 05:24:42;;;;;;;3.87;2.00;;;;;;;9.04;27.31;100912.78;5071742;28;20064;-69
2021/11/10 05:27:09;;;;;;;3.97;1.80;;;;;;;9.29;27.45;100947.06;5089858;28;20078;-69
2021/11/10 05:29:35;;;;;;;5.10;1.90;;;;;;;9.25;27.39;100952.72;5089562;28;20543;-69
2021/11/10 05:32:00;;;;;;;7.00;2.50;;;;;;;9.08;27.67;100954.00;5071638;28;20131;-68
2021/11/10 05:34:26;;;;;;;3.17;1.90;;;;;;;9.19;27.59;100964.66;5071399;28;20060;-70
2021/11/10 05:36:52;;;;;;;7.47;2.40;;;;;;;9.20;27.42;100966.31;5089205;28;20048;-70
2021/11/10 05:39:19;;;;;;;7.63;2.23;;;;;;;8.97;27.23;100931.91;5071133;28;20097;-71
2021/11/10 05:41:46;;;;;;;2.50;2.07;;;;;;;8.99;27.74;100965.31;5071200;28;20044;-70
2021/11/10 05:44:12;;;;;;;5.27;2.67;;;;;;;9.23;27.82;100962.59;5089325;28;20436;-69
2021/11/10 05:46:39;;;;;;;11.20;2.30;;;;;;;9.34;27.84;100958.16;5070861;28;20161;-69
2021/11/10 05:49:05;;;;;;;2.20;2.00;;;;;;;9.19;27.61;100962.00;5089524;28;20048;-69
2021/11/10 05:51:31;;;;;;;7.90;2.10;;;;;;;9.29;27.56;100957.66;5054593;28;20050;-69
2021/11/10 05:53:57;;;;;;;5.93;2.70;;;;;;;9.47;27.29;100963.38;5089352;28;20082;-69
2021/11/10 05:56:25;;;;;;;3.03;1.90;;;;;;;9.57;27.41;100954.56;5089287;28;20040;-70
2021/11/10 05:58:51;;;;;;;2.77;2.40;;;;;;;9.60;27.25;100956.97;5089456;28;20036;-69
2021/11/10 06:01:17;;;;;;;2.87;1.90;;;;;;;9.41;27.45;100954.06;5071071;28;20044;-69
2021/11/10 06:03:43;;;;;;;7.83;2.00;;;;;;;9.70;27.15;100954.47;5071330;28;20078;-69
2021/11/10 06:06:09;;;;;;;2.47;1.80;;;;;;;9.40;27.31;100947.09;5089287;28;20169;-70
2021/11/10 06:08:37;;;;;;;4.27;2.20;;;;;;;9.89;27.18;100950.22;5054162;28;20124;-68
2021/11/10 06:11:04;;;;;;;2.30;2.10;;;;;;;10.20;26.64;100960.13;5071336;28;20510;-69
2021/11/10 06:13:30;;;;;;;6.97;2.47;;;;;;;10.07;26.45;100959.41;5070889;28;20138;-70
2021/11/10 06:15:55;;;;;;;2.20;2.00;;;;;;;9.57;27.25;100961.69;5089135;28;20456;-71
2021/11/10 06:18:21;;;;;;;3.73;2.10;;;;;;;9.92;27.12;100963.25;5089331;28;20143;-66
2021/11/10 06:20:47;;;;;;;2.87;2.07;;;;;;;10.05;26.60;100948.06;5089103;28;20165;-75
2021/11/10 06:23:13;;;;;;;2.73;1.53;;;;;;;10.29;25.84;100931.97;5089228;28;20040;-69
2021/11/10 06:25:39;;;;;;;3.27;1.83;;;;;;;10.55;25.84;100967.88;5071126;28;20040;-67
2021/11/10 06:28:05;;;;;;;4.50;1.90;;;;;;;11.03;25.10;100960.28;5037428;28;20048;-69
2021/11/10 06:30:31;;;;;;;1.80;1.50;;;;;;;11.35;24.49;100967.25;5071396;28;20043;-70
2021/11/10 06:32:57;;;;;;;3.93;1.80;;;;;;;11.86;23.89;100975.25;5054558;28;20093;-70
2021/11/10 06:35:23;;;;;;;7.50;1.87;;;;;;;12.28;23.20;100968.81;5054753;28;20040;-71
2021/11/10 06:37:49;;;;;;;1.70;1.60;;;;;;;12.72;22.62;100949.66;5054593;28;20051;-73
2021/11/10 06:40:15;;;;;;;3.25;1.90;;;;;;;13.39;22.01;100960.31;5054446;28;20574;-72
2021/11/10 06:42:42;;;;;;;1.52;1.30;;;;;;;14.58;20.61;100960.19;5071497;28;20051;-73
2021/11/10 06:45:08;;;;;;;3.53;1.58;;;;;;;17.42;18.36;100973.81;5071867;28;20427;-73
2021/11/10 06:47:34;;;;;;;1.85;1.30;;;;;;;20.58;15.46;100974.75;5071669;28;20588;-71
2021/11/10 06:50:01;;;;;;;2.05;1.17;;;;;;;23.25;13.04;100959.41;5071520;28;20411;-73
2021/11/10 06:52:29;;;;;;;2.60;1.05;;;;;;;23.78;11.09;100962.91;5055506;28;20500;-73
2021/11/10 06:54:55;;;;;;;5.38;1.20;;;;;;;24.67;10.96;100967.47;5071644;28;20048;-72
2021/11/10 06:57:21;;;;;;;1.38;1.00;;;;;;;26.58;9.78;100965.53;5071338;28;20389;-74
2021/11/10 06:59:48;;;;;;;10.77;2.60;;;;;;;26.58;9.68;100962.81;5070901;28;20492;-71
2021/11/10 07:02:13;;;;;;;2.05;1.20;;;;;;;25.24;10.30;100956.44;5057094;28;20640;-70
2021/11/10 07:04:39;;;;;;;2.55;1.38;;;;;;;25.51;10.19;100957.09;5072537;28;20531;-68
2021/11/10 07:07:05;;;;;;;1.88;1.17;;;;;;;26.71;8.96;100958.03;5057147;28;20419;-70
2021/11/10 07:09:32;;;;;;;4.22;1.23;;;;;;;27.70;8.86;100956.25;5074407;28;20048;-70
2021/11/10 07:11:58;;;;;;;6.47;1.50;;;;;;;26.83;8.73;100952.63;5073176;28;20456;-70
2021/11/10 07:14:26;;;;;;;6.38;1.60;;;;;;;27.58;8.82;100955.41;5056913;28;20048;-71
2021/11/10 07:16:52;;;;;;;3.22;1.67;;;;;;;28.53;8.11;100945.81;5074385;28;20054;-71
2021/11/10 07:19:18;;;;;;;10.07;1.92;;;;;;;29.64;7.51;100947.81;5092501;28;20044;-73
2021/11/10 07:21:44;;;;;;;6.10;1.85;;;;;;;30.90;6.85;100951.97;5074006;28;20120;-70
2021/11/10 07:24:10;;;;;;;9.10;3.38;;;;;;;31.96;6.21;100945.44;5039813;28;20047;-71
2021/11/10 07:26:36;;;;;;;3.13;1.83;;;;;;;32.55;5.53;100948.75;5073712;28;20036;-70
2021/11/10 07:29:02;;;;;;;8.57;2.45;;;;;;;33.14;5.19;100941.69;5092436;28;20479;-72
2021/11/10 07:31:27;;;;;;;8.43;1.90;;;;;;;33.86;5.01;100944.97;5092073;28;20040;-73
2021/11/10 07:33:53;;;;;;;8.57;2.00;;;;;;;34.02;4.61;100938.34;5056971;28;20155;-73
2021/11/10 07:36:19;;;;;;;4.43;1.63;;;;;;;31.68;5.81;100937.53;5091308;28;20040;-73
2021/11/10 07:38:44;;;;;;;5.97;1.70;;;;;;;30.64;6.13;100936.28;5073912;28;20036;-74
2021/11/10 07:41:17;;;;;;;3.70;1.73;;;;;;;31.06;6.17;100917.25;5057144;28;20047;-73
2021/11/10 07:43:44;;;;;;;3.55;1.52;;;;;;;31.02;6.08;100949.03;5053744;28;20063;-74
2021/11/10 07:46:15;;;;;;;3.30;1.38;;;;;;;30.92;6.15;100946.22;5070933;28;20041;-72
2021/11/10 07:48:42;;;;;;;3.20;1.27;;;;;;;31.75;5.82;100948.28;5071395;28;20488;-74
2021/11/10 07:51:08;;;;;;;2.17;1.17;;;;;;;31.36;5.90;100939.50;5053374;28;20412;-73
2021/11/10 07:53:35;;;;;;;6.32;1.40;;;;;;;32.09;5.55;100944.13;5070600;28;20113;-71
2021/11/10 07:56:01;;;;;;;6.35;2.00;;;;;;;31.40;5.33;100940.59;5071375;28;20583;-73
2021/11/10 07:58:27;;;;;;;9.13;2.03;;;;;;;28.41;6.77;100945.00;5036808;28;20412;-72
2021/11/10 08:00:53;;;;;;;3.28;1.45;;;;;;;30.54;6.54;100947.13;5053730;28;20522;-72
2021/11/10 08:03:19;;;;;;;5.82;1.58;;;;;;;32.91;5.00;100949.66;5070622;28;20044;-72
2021/11/10 08:05:45;;;;;;;5.20;1.73;;;;;;;32.38;5.24;100937.94;5036858;28;20044;-72
2021/11/10 08:08:11;;;;;;;3.25;1.33;;;;;;;30.53;6.07;100948.22;5070919;28;20412;-71
2021/11/10 08:10:37;;;;;;;1.65;1.20;;;;;;;28.16;7.29;100925.34;5052693;28;20040;-72
2021/11/10 08:13:03;;;;;;;4.93;1.83;;;;;;;26.91;8.04;100944.13;5036147;28;20040;-72
2021/11/10 08:15:29;;;;;;;9.48;1.70;;;;;;;27.54;7.73;100937.84;5069110;28;20047;-71
2021/11/10 08:17:54;;;;;;;7.85;3.63;;;;;;;28.53;7.49;100945.81;5052814;28;20143;-69
2021/11/10 08:20:21;;;;;;;4.00;1.70;;;;;;;29.47;6.89;100956.00;5036096;28;20041;-69
2021/11/10 08:22:47;;;;;;;5.53;2.08;;;;;;;31.53;5.64;100940.16;5052621;28;20527;-69
2021/11/10 08:25:16;;;;;;;4.50;2.22;;;;;;;31.07;5.84;100949.09;5053237;28;20036;-69
2021/11/10 08:27:42;;;;;;;5.10;1.95;;;;;;;32.04;5.80;100952.34;5070455;28;20037;-70
2021/11/10 08:30:12;;;;;;;5.72;1.63;;;;;;;29.87;5.99;100953.09;5036170;28;20048;-70
2021/11/10 08:32:38;;;;;;;4.15;2.08;;;;;;;30.15;6.49;100947.44;5070649;28;20059;-70
2021/11/10 08:35:05;;;;;;;3.45;2.08;;;;;;;31.75;5.62;100951.88;5036473;28;20416;-71
2021/11/10 08:37:31;;;;;;;7.68;1.95;;;;;;;32.18;5.86;100957.06;5069709;28;20131;-70
2021/11/10 08:39:58;;;;;;;5.00;1.80;;;;;;;33.79;4.63;100952.72;5052568;28;20600;-71
2021/11/10 08:42:29;;;;;;;8.73;2.40;;;;;;;34.76;4.11;100960.38;5036153;28;20040;-72
2021/11/10 08:44:57;;;;;;;5.97;1.90;;;;;;;34.34;4.37;100946.19;5035690;28;20397;-70
2021/11/10 08:47:23;;;;;;;4.90;2.13;;;;;;;33.68;5.03;100947.47;5052043;28;20040;-70
2021/11/10 08:49:49;;;;;;;4.22;2.00;;;;;;;32.56;5.24;100939.38;5052151;28;20071;-70
2021/11/10 08:52:15;;;;;;;5.75;2.00;;;;;;;30.86;6.13;100928.84;5069673;28;20040;-70
2021/11/10 08:54:41;;;;;;;4.30;1.63;;;;;;;29.46;6.50;100933.25;5051729;28;20044;-70
2021/11/10 08:57:07;;;;;;;6.78;2.10;;;;;;;27.93;7.34;100926.22;5051227;28;20098;-70
2021/11/10 08:59:33;;;;;;;10.13;2.50;;;;;;;26.46;8.28;100925.41;5052163;28;20076;-69
2021/11/10 09:02:01;;;;;;;7.03;2.50;;;;;;;25.40;9.36;100906.91;5069375;28;20450;-68
2021/11/10 09:04:27;;;;;;;6.28;2.45;;;;;;;25.04;9.54;100920.41;5068938;28;20055;-69
2021/11/10 09:06:52;;;;;;;7.47;2.10;;;;;;;23.75;10.19;100909.94;5050658;28;20492;-69
2021/11/10 09:09:18;;;;;;;4.38;2.00;;;;;;;23.43;10.36;100909.97;5068479;28;20049;-69
2021/11/10 09:11:49;;;;;;;5.55;2.20;;;;;;;22.43;11.37;100915.47;5050129;28;20052;-67
2021/11/10 09:14:17;;;;;;;6.53;1.83;;;;;;;21.31;12.36;100906.91;5068366;28;20147;-68
2021/11/10 09:16:43;;;;;;;9.18;2.17;;;;;;;21.47;12.37;100907.44;5051550;28;20039;-68
2021/11/10 09:19:09;;;;;;;5.20;2.03;;;;;;;20.76;12.94;100917.59;5068044;28;20049;-69
2021/11/10 09:21:35;;;;;;;5.72;1.52;;;;;;;20.83;12.94;100915.81;5068627;28;20445;-69
2021/11/10 09:24:01;;;;;;;5.15;1.80;;;;;;;19.43;13.90;100917.13;5069335;28;20040;-68
2021/11/10 09:26:27;;;;;;;5.93;1.70;;;;;;;17.99;15.19;100895.56;5050447;28;20048;-69
2021/11/10 09:28:54;;;;;;;7.80;2.20;;;;;;;17.15;16.40;100912.41;5034006;28;20040;-68
2021/11/10 09:31:22;;;;;;;2.08;1.50;;;;;;;16.52;16.88;100894.28;5067971;28;20041;-67
2021/11/10 09:33:49;;;;;;;3.63;1.75;;;;;;;16.29;17.34;100922.69;5034827;28;20075;-70
2021/11/10 09:36:15;;;;;;;3.25;1.80;;;;;;;15.49;18.21;100916.97;5068877;28;20449;-67
2021/11/10 09:38:41;;;;;;;2.08;1.70;;;;;;;15.00;19.04;100921.13;5068770;28;20082;-67
2021/11/10 09:41:09;;;;;;;3.10;1.80;;;;;;;15.39;18.96;100920.78;5050091;28;20569;-68
2021/11/10 09:43:37;;;;;;;4.13;1.80;;;;;;;15.18;19.01;100889.81;5069438;28;20510;-69
2021/11/10 09:46:04;;;;;;;5.72;1.83;;;;;;;14.96;19.24;100897.53;5051224;28;20044;-69
2021/11/10 09:48:30;;;;;;;6.75;2.45;;;;;;;13.89;20.54;100923.44;5067501;28;20040;-67
2021/11/10 09:50:57;;;;;;;4.18;1.70;;;;;;;13.96;20.96;100929.88;5034660;28;20094;-67
2021/11/10 09:53:23;;;;;;;4.55;2.03;;;;;;;13.69;21.04;100925.34;5051200;28;20048;-67
2021/11/10 09:55:49;;;;;;;7.30;2.88;;;;;;;14.40;20.67;100927.25;5051003;28;20036;-69
2021/11/10 09:58:15;;;;;;;6.68;2.17;;;;;;;15.14;19.74;100914.38;5034357;28;20071;-68
2021/11/10 10:00:47;;;;;;;4.63;2.10;;;;;;;15.67;19.29;100922.28;5067881;28;20131;-68
2021/11/10 10:03:12;;;;;;;;;;;;;;;15.44;19.39;100932.69;5068034;28;20048;-68
2021/11/10 10:05:38;;;;;;;12.40;2.40;;;;;;;14.33;20.35;100922.66;5051335;28;19920;-68
2021/11/10 10:08:05;;;;;;;5.75;2.50;;;;;;;15.04;20.11;100925.16;5051457;28;20109;-69
2021/11/10 10:10:32;;;;;;;3.33;2.25;;;;;;;15.84;19.34;100935.59;5017668;28;20055;-68
2021/11/10 10:12:59;;;;;;;6.10;1.98;;;;;;;16.31;18.62;100922.53;5033481;28;20040;-68
2021/11/10 10:15:28;;;;;;;3.80;2.10;;;;;;;16.23;18.81;100914.47;5049590;28;20113;-67
2021/11/10 10:17:58;;;;;;;5.05;2.40;;;;;;;16.28;18.64;100917.50;5066335;28;20098;-68
2021/11/10 10:20:29;;;;;;;4.28;2.40;;;;;;;17.70;17.82;100929.44;5047193;28;20040;-68
2021/11/10 10:22:57;;;;;;;2.78;1.90;;;;;;;19.90;15.63;100922.97;5031180;28;20086;-68
2021/11/10 10:25:35;;;;;;;3.90;1.60;;;;;;;22.71;13.31;100916.16;5048771;28;20088;-69
2021/11/10 10:28:01;;;;;;;5.15;1.75;;;;;;;23.04;12.77;100914.34;5048537;28;20121;-69
2021/11/10 10:30:45;;;;;;;3.63;2.15;;;;;;;25.31;11.50;100905.50;5066575;28;20526;-69
2021/11/10 10:33:34;;;;;;;4.13;2.08;;;;;;;25.90;10.67;100900.34;5062937;28;20047;-69
2021/11/10 10:36:09;;;;;;;7.28;1.98;;;;;;;24.44;11.35;100907.38;5088533;28;20612;-68
2021/11/10 10:38:52;;;;;;;9.55;2.13;;;;;;;24.52;11.43;100904.41;5072619;28;20511;-70
2021/11/10 10:41:21;;;;;;;3.28;1.70;;;;;;;23.95;11.67;100902.56;5091486;28;20044;-67
2021/11/10 10:43:54;;;;;;;3.97;1.83;;;;;;;25.93;10.64;100889.00;5041855;28;20097;-68
2021/11/10 10:46:26;;;;;;;3.42;1.80;;;;;;;25.36;10.57;100875.78;5074291;28;20098;-71
2021/11/10 10:48:52;;;;;;;9.20;3.25;;;;;;;24.78;10.86;100879.81;5092753;28;20436;-71
2021/11/10 10:51:19;;;;;;;4.35;1.80;;;;;;;26.20;10.35;100882.19;5073862;28;20047;-72
2021/11/10 10:53:49;;;;;;;3.08;2.03;;;;;;;24.12;11.34;100878.50;5092709;28;20407;-69
2021/11/10 10:56:36;;;;;;;3.33;1.80;;;;;;;25.26;10.65;100880.06;5092049;28;20854;-69
2021/11/10 10:59:06;;;;;;;4.43;1.73;;;;;;;25.96;10.29;100882.25;5092609;28;20083;-68
2021/11/10 11:01:53;;;;;;;6.73;1.93;;;;;;;26.76;9.69;100884.56;5092294;28;20039;-67
2021/11/10 11:04:22;;;;;;;7.22;2.13;;;;;;;26.76;9.77;100881.84;5091531;28;20066;-68
2021/11/10 11:07:03;;;;;;;6.20;3.38;;;;;;;26.72;9.42;100882.53;5073822;28;20046;-72
2021/11/10 11:09:35;;;;;;;4.55;2.60;;;;;;;25.88;10.00;100866.22;5070828;28;20050;-70
2021/11/10 11:12:28;;;;;;;3.92;1.85;;;;;;;25.80;10.21;100866.53;5068264;28;20052;-68
2021/11/10 11:15:25;;;;;;;5.30;1.83;;;;;;;25.61;10.10;100868.44;5074270;28;20139;-71
2021/11/10 11:17:55;;;;;;;3.78;2.30;;;;;;;25.14;10.92;100850.03;5070684;28;20049;-70
2021/11/10 11:20:32;;;;;;;4.78;2.03;;;;;;;23.51;11.63;100833.81;5070178;28;20044;-67
2021/11/10 11:22:59;;;;;;;4.45;2.10;;;;;;;24.27;11.39;100852.75;5069754;28;20091;-69
2021/11/10 11:25:30;;;;;;;6.57;2.38;;;;;;;24.98;10.81;100828.00;5071946;28;20556;-69
2021/11/10 11:28:06;;;;;;;8.02;3.15;;;;;;;24.07;11.16;100843.03;5071391;28;20923;-69
2021/11/10 11:30:44;;;;;;;3.78;2.30;;;;;;;21.12;13.23;100823.81;5071418;28;20049;-68
2021/11/10 11:33:15;;;;;;;5.05;2.47;;;;;;;20.10;14.81;100827.81;5069437;28;20084;-69
2021/11/10 11:35:46;;;;;;;9.07;4.78;;;;;;;21.09;13.78;100826.91;5071132;28;20135;-69